Pierre, SD (57501)

1:30 AM CDT on July 27, 2016 (GMT -0500)
2 miles north of airport | | Change Station

Elev 1818 ft 44.41 °N, 100.30 °W | Updated 1 minute ago

Clear
Clear
69.3 °F
Feels Like 69.3 °F
N
0.0
Wind Variable Wind from West
Gusts 8.0 mph

Today
High -- | Low -- °F
--% Chance of Precip.
Yesterday
High -- | Low -- °F
Precip. -- in
Pressure 29.93 in
Visibility 10.0 miles
Clouds Clear
Dew Point 66 °F
Humidity 89%
Rainfall 0.00 in
Snow Depth Not available.
6:22 AM 9:11 PM
Waning Gibbous, 46% visible
METAR KPIR 270553Z AUTO 31004KT 10SM CLR 21/17 A2997 RMK AO2 SLP135 60001 T02060172 10256 20206 403500206 53009
Pressure 29.93 in
Visibility 10.0 miles
Clouds Clear
Dew Point 66 °F
Humidity 89%
Rainfall 0.00 in
Snow Depth Not available.
6:22 AM 9:11 PM
Waning Gibbous, 46% visible
METAR KPIR 270553Z AUTO 31004KT 10SM CLR 21/17 A2997 RMK AO2 SLP135 60001 T02060172 10256 20206 403500206 53009

10-Day Weather Forecast

Almanac

Astronomy

Jul. 27, 2016 Rise Set
Actual Time
Civil Twilight
Nautical Twilight
Astronomical Twilight
Moon
Length of Visible Light
Length of Day
Tomorrow will be .
, % of the Moon is Illuminated

Today's Extremes

State Highs State Lows

Community

WunderPhotos

Upload Photos

1,927,818 photos uploaded!

WunderBlog® & News

Nearby

Air Quality

  Air Quality AQ Index Pollutant
Not available.

Snow Depth

Station Depth Elevation

Earthquake Activity

City Distance Mag. Time & Date
Minimum magnitude displayed is 2.5.

Coastal Water Temperatures

Place Temperature

Stations

Nearby Weather Stations

Station Location Temp. Windchill Dew Point Humidity Wind Precip. Elev Updated Type
                   

Watches & Warnings

There are currently no watches in effect.